createdAt,value
2022-11-06T00:01:13.008Z,15.97
2022-11-06T00:03:40.055Z,15.00
2022-11-06T00:06:30.575Z,13.40
2022-11-06T00:09:00.122Z,13.37
2022-11-06T00:11:27.564Z,14.90
2022-11-06T00:13:54.504Z,14.13
2022-11-06T00:16:21.333Z,15.53
2022-11-06T00:18:48.684Z,15.37
2022-11-06T00:21:18.163Z,15.70
2022-11-06T00:23:45.665Z,15.63
2022-11-06T00:26:14.809Z,15.70
2022-11-06T00:28:41.496Z,14.57
2022-11-06T00:31:12.354Z,13.40
2022-11-06T00:33:39.484Z,14.97
2022-11-06T00:36:08.050Z,15.63
2022-11-06T00:38:34.787Z,14.13
2022-11-06T00:41:07.902Z,13.67
2022-11-06T00:43:35.768Z,14.97
2022-11-06T00:46:20.830Z,13.33
2022-11-06T00:48:48.022Z,13.60
2022-11-06T00:51:23.247Z,14.53
2022-11-06T00:53:57.740Z,14.03
2022-11-06T00:56:25.319Z,12.47
2022-11-06T00:58:52.578Z,15.57
2022-11-06T01:01:25.234Z,11.77
2022-11-06T01:04:03.868Z,14.27
2022-11-06T01:06:33.914Z,13.60
2022-11-06T01:09:00.990Z,13.30
2022-11-06T01:11:59.333Z,15.00
2022-11-06T01:14:23.898Z,12.40
2022-11-06T01:16:50.845Z,13.30
2022-11-06T01:19:19.001Z,13.67
2022-11-06T01:21:49.256Z,11.97
2022-11-06T01:24:22.665Z,14.10
2022-11-06T01:27:12.564Z,12.90
2022-11-06T01:29:37.428Z,13.13
2022-11-06T01:32:04.398Z,12.33
2022-11-06T01:34:30.982Z,16.80
2022-11-06T01:36:57.537Z,14.97
2022-11-06T01:39:24.112Z,13.67
2022-11-06T01:41:52.630Z,13.27
2022-11-06T01:44:43.169Z,13.87
2022-11-06T01:47:20.635Z,14.20
2022-11-06T01:49:47.684Z,14.20
2022-11-06T01:52:16.132Z,13.10
2022-11-06T01:54:46.572Z,12.73
2022-11-06T01:57:13.493Z,14.13
2022-11-06T01:59:43.793Z,12.80
2022-11-06T02:02:11.238Z,13.07
2022-11-06T02:04:42.812Z,13.47
2022-11-06T02:07:10.564Z,14.00
2022-11-06T02:09:37.187Z,16.87
2022-11-06T02:12:41.432Z,14.40
2022-11-06T02:15:08.191Z,13.40
2022-11-06T02:17:42.036Z,12.03
2022-11-06T02:20:40.557Z,12.97
2022-11-06T02:23:58.888Z,14.03
2022-11-06T02:26:50.010Z,12.40
2022-11-06T02:29:32.604Z,11.87
2022-11-06T02:32:01.856Z,15.50
2022-11-06T02:34:29.931Z,11.73
2022-11-06T02:37:04.128Z,15.07
2022-11-06T02:39:34.609Z,10.53
2022-11-06T02:42:03.016Z,11.20
2022-11-06T02:44:31.457Z,11.07
2022-11-06T02:47:02.818Z,12.87
2022-11-06T02:49:33.986Z,11.13
2022-11-06T02:52:11.302Z,11.60
2022-11-06T02:54:43.093Z,10.40
2022-11-06T02:57:15.911Z,10.63
2022-11-06T02:59:51.276Z,11.03
2022-11-06T03:02:23.336Z,11.10
2022-11-06T03:05:15.485Z,10.13
2022-11-06T03:07:53.343Z,12.97
2022-11-06T03:10:20.269Z,9.33
2022-11-06T03:12:55.061Z,10.50
2022-11-06T03:15:27.575Z,10.67
2022-11-06T03:18:15.496Z,9.33
2022-11-06T03:21:01.098Z,9.00
2022-11-06T03:23:35.719Z,10.00
2022-11-06T03:26:24.593Z,16.10
2022-11-06T03:28:59.229Z,9.03
2022-11-06T03:31:53.614Z,9.73
2022-11-06T03:34:28.731Z,9.20
2022-11-06T03:37:05.494Z,7.90
2022-11-06T03:39:39.523Z,8.97
2022-11-06T03:42:17.279Z,7.77
2022-11-06T03:44:49.748Z,7.03
2022-11-06T03:47:19.291Z,8.00
2022-11-06T03:49:59.271Z,7.10
2022-11-06T03:52:38.074Z,6.83
2022-11-06T03:55:08.326Z,7.13
2022-11-06T03:58:01.828Z,7.83
2022-11-06T04:00:28.505Z,7.53
2022-11-06T04:03:05.891Z,8.03
2022-11-06T04:05:46.867Z,8.00
2022-11-06T04:08:34.724Z,7.50
2022-11-06T04:11:22.624Z,9.30
2022-11-06T04:13:57.390Z,7.73
2022-11-06T04:16:26.353Z,9.73
2022-11-06T04:18:52.953Z,7.40
2022-11-06T04:21:25.941Z,8.10
2022-11-06T04:24:29.369Z,9.50
2022-11-06T04:27:30.909Z,8.97
2022-11-06T04:30:00.267Z,9.47
2022-11-06T04:32:35.723Z,7.93
2022-11-06T04:35:12.076Z,8.30
2022-11-06T04:38:04.420Z,7.13
2022-11-06T04:41:02.511Z,7.30
2022-11-06T04:44:07.193Z,7.43
2022-11-06T04:46:39.793Z,6.60
2022-11-06T04:49:07.753Z,7.43
2022-11-06T04:51:37.282Z,7.57
2022-11-06T04:54:06.972Z,7.53
2022-11-06T04:56:37.992Z,7.30
2022-11-06T04:59:13.945Z,6.97
2022-11-06T05:01:40.620Z,6.77
2022-11-06T05:04:07.277Z,7.43
2022-11-06T05:06:33.897Z,8.17
2022-11-06T05:09:01.154Z,7.70
2022-11-06T05:11:27.806Z,6.57
2022-11-06T05:13:54.599Z,6.63
2022-11-06T05:16:21.219Z,6.70
2022-11-06T05:18:47.860Z,6.67
2022-11-06T05:21:32.923Z,7.90
2022-11-06T05:23:59.497Z,6.70
2022-11-06T05:26:26.060Z,6.37
2022-11-06T05:28:52.716Z,6.77
2022-11-06T05:31:19.276Z,10.40
2022-11-06T05:33:45.845Z,7.47
2022-11-06T05:36:12.484Z,9.17
2022-11-06T05:38:39.196Z,8.07
2022-11-06T05:41:05.782Z,9.37
2022-11-06T05:43:32.406Z,8.73
2022-11-06T05:46:00.420Z,8.07
2022-11-06T05:48:28.253Z,13.13
2022-11-06T05:51:00.785Z,8.07
2022-11-06T05:53:27.395Z,10.70
2022-11-06T05:55:53.969Z,9.80
2022-11-06T05:58:20.543Z,7.60
2022-11-06T06:00:47.138Z,6.90
2022-11-06T06:03:13.763Z,6.10
2022-11-06T06:05:40.559Z,6.20
2022-11-06T06:08:07.169Z,6.37
2022-11-06T06:10:33.871Z,5.87
2022-11-06T06:13:00.439Z,4.97
2022-11-06T06:15:27.078Z,5.30
2022-11-06T06:17:53.663Z,5.67
2022-11-06T06:20:20.235Z,5.37
2022-11-06T06:22:54.106Z,5.13
2022-11-06T06:25:23.064Z,5.27
2022-11-06T06:27:50.488Z,4.83
2022-11-06T06:30:17.278Z,4.70
2022-11-06T06:32:44.192Z,5.17
2022-11-06T06:35:11.087Z,5.03
2022-11-06T06:37:37.904Z,4.50
2022-11-06T06:40:05.515Z,4.83
2022-11-06T06:42:32.556Z,5.20
2022-11-06T06:44:59.129Z,4.93
2022-11-06T06:47:25.697Z,4.73
2022-11-06T06:49:52.329Z,5.57
2022-11-06T06:52:21.119Z,4.77
2022-11-06T06:54:47.811Z,4.80
2022-11-06T06:57:14.387Z,5.47
2022-11-06T06:59:40.980Z,5.40
2022-11-06T07:02:09.414Z,7.90
2022-11-06T07:04:37.173Z,4.60
2022-11-06T07:07:03.820Z,4.73
2022-11-06T07:09:31.681Z,5.80
2022-11-06T07:11:59.040Z,5.30
2022-11-06T07:14:25.624Z,5.97
2022-11-06T07:16:53.849Z,5.27
2022-11-06T07:19:20.761Z,4.63
2022-11-06T07:21:47.363Z,5.10
2022-11-06T07:24:14.027Z,4.83
2022-11-06T07:26:40.628Z,4.77
2022-11-06T07:29:08.273Z,5.00
2022-11-06T07:31:35.077Z,5.20
2022-11-06T07:34:01.663Z,4.63
2022-11-06T07:36:28.383Z,6.43
2022-11-06T07:38:54.949Z,5.27
2022-11-06T07:41:21.551Z,6.30
2022-11-06T07:43:51.160Z,5.00
2022-11-06T07:46:17.721Z,5.43
2022-11-06T07:48:44.296Z,4.77
2022-11-06T07:51:13.790Z,4.20
2022-11-06T07:53:41.158Z,4.40
2022-11-06T07:56:08.673Z,5.13
2022-11-06T07:58:35.524Z,6.33
2022-11-06T08:01:02.547Z,4.63
2022-11-06T08:03:32.249Z,5.00
2022-11-06T08:05:59.409Z,4.20
2022-11-06T08:08:27.313Z,4.20
2022-11-06T08:10:54.940Z,4.37
2022-11-06T08:13:22.946Z,4.50
2022-11-06T08:15:49.808Z,4.40
2022-11-06T08:18:16.929Z,4.50
2022-11-06T08:20:43.841Z,3.90
2022-11-06T08:23:12.786Z,4.90
2022-11-06T08:25:39.754Z,4.77
2022-11-06T08:28:06.329Z,4.60
2022-11-06T08:30:33.092Z,4.50
2022-11-06T08:33:05.339Z,4.77
2022-11-06T08:35:32.051Z,6.07
2022-11-06T08:37:58.617Z,4.47
2022-11-06T08:40:30.587Z,5.13
2022-11-06T08:43:02.319Z,4.97
2022-11-06T08:45:29.375Z,5.87
2022-11-06T08:48:00.236Z,5.60
2022-11-06T08:50:26.883Z,8.03
2022-11-06T08:52:57.574Z,6.73
2022-11-06T08:55:24.217Z,6.63
2022-11-06T08:57:50.843Z,5.23
2022-11-06T09:00:17.612Z,7.20
2022-11-06T09:02:44.221Z,6.53
2022-11-06T09:05:10.825Z,6.17
2022-11-06T09:07:38.556Z,7.57
2022-11-06T09:10:05.752Z,7.27
2022-11-06T09:12:32.377Z,6.93
2022-11-06T09:14:59.018Z,7.60
2022-11-06T09:17:25.626Z,7.33
2022-11-06T09:19:52.706Z,9.10
2022-11-06T09:22:19.481Z,8.47
2022-11-06T09:25:02.470Z,8.57
2022-11-06T09:27:30.090Z,8.90
2022-11-06T09:29:56.699Z,11.13
2022-11-06T09:32:24.631Z,9.50
2022-11-06T09:34:51.278Z,9.03
2022-11-06T09:37:17.943Z,9.63
2022-11-06T09:39:44.656Z,10.30
2022-11-06T09:42:28.280Z,11.63
2022-11-06T09:45:08.692Z,11.93
2022-11-06T09:47:39.581Z,12.10
2022-11-06T09:50:12.350Z,10.67
2022-11-06T09:52:54.299Z,10.00
2022-11-06T09:55:33.421Z,12.40
2022-11-06T09:58:05.639Z,12.20
2022-11-06T10:00:32.754Z,12.13
2022-11-06T10:03:12.789Z,10.17
2022-11-06T10:05:41.473Z,14.53
2022-11-06T10:08:24.821Z,15.03
2022-11-06T10:11:16.354Z,18.37
2022-11-06T10:14:01.789Z,16.10
2022-11-06T10:16:37.932Z,16.27
2022-11-06T10:19:33.130Z,15.40
2022-11-06T10:22:16.391Z,13.90
2022-11-06T10:25:06.301Z,13.10
2022-11-06T10:27:41.692Z,11.70
2022-11-06T10:30:17.006Z,17.27
2022-11-06T10:32:49.775Z,14.77
2022-11-06T10:35:20.305Z,14.00
2022-11-06T10:37:54.649Z,12.50
2022-11-06T10:40:25.820Z,11.37
2022-11-06T10:43:07.041Z,11.73
2022-11-06T10:45:34.607Z,12.03
2022-11-06T10:48:22.865Z,13.97
2022-11-06T10:51:20.300Z,11.13
2022-11-06T10:54:01.900Z,12.13
2022-11-06T10:57:00.464Z,12.03
2022-11-06T10:59:27.729Z,10.20
2022-11-06T11:01:54.550Z,10.27
2022-11-06T11:04:21.226Z,10.23
2022-11-06T11:06:47.874Z,10.43
2022-11-06T11:09:30.671Z,8.60
2022-11-06T11:11:57.835Z,8.80
2022-11-06T11:14:31.723Z,11.83
2022-11-06T11:17:01.237Z,10.17
2022-11-06T11:19:41.059Z,9.77
2022-11-06T11:22:16.671Z,9.87
2022-11-06T11:25:03.846Z,13.27
2022-11-06T11:27:52.604Z,11.00
2022-11-06T11:30:22.715Z,11.93
2022-11-06T11:32:50.224Z,9.80
2022-11-06T11:35:23.906Z,10.47
2022-11-06T11:37:50.574Z,9.07
2022-11-06T11:40:36.826Z,12.90
2022-11-06T11:43:29.092Z,13.80
2022-11-06T11:46:04.840Z,9.10
2022-11-06T11:48:47.651Z,10.17
2022-11-06T11:51:41.814Z,9.57
2022-11-06T11:54:11.400Z,11.30
2022-11-06T11:57:07.301Z,9.10
2022-11-06T11:59:46.923Z,11.67
2022-11-06T12:02:26.776Z,12.07
2022-11-06T12:04:58.415Z,12.37
2022-11-06T12:07:29.369Z,9.77
2022-11-06T12:09:56.828Z,13.57
2022-11-06T12:12:36.336Z,11.10
2022-11-06T12:15:17.067Z,10.63
2022-11-06T12:17:45.556Z,10.67
2022-11-06T12:20:19.636Z,11.43
2022-11-06T12:22:50.575Z,9.87
2022-11-06T12:25:30.715Z,10.73
2022-11-06T12:28:02.489Z,14.80
2022-11-06T12:30:32.872Z,13.23
2022-11-06T12:33:16.006Z,10.97
2022-11-06T12:35:48.256Z,11.27
2022-11-06T12:38:38.242Z,10.67
2022-11-06T12:41:10.510Z,10.80
2022-11-06T12:43:39.853Z,10.83
2022-11-06T12:46:12.097Z,10.73
2022-11-06T12:49:17.363Z,10.53
2022-11-06T12:52:02.814Z,11.50
2022-11-06T12:54:32.133Z,13.37
2022-11-06T12:57:29.702Z,11.43
2022-11-06T13:00:20.874Z,11.07
2022-11-06T13:03:22.168Z,12.00
2022-11-06T13:06:13.660Z,10.70
2022-11-06T13:09:08.334Z,9.80
2022-11-06T13:11:58.130Z,9.63
2022-11-06T13:15:03.172Z,12.27
2022-11-06T13:17:44.072Z,10.40
2022-11-06T13:20:32.722Z,11.90
2022-11-06T13:23:14.165Z,11.90
2022-11-06T13:25:58.038Z,11.20
2022-11-06T13:28:44.720Z,10.77
2022-11-06T13:31:14.656Z,10.70
2022-11-06T13:33:54.302Z,13.00
2022-11-06T13:36:21.376Z,11.10
2022-11-06T13:39:02.913Z,11.13
2022-11-06T13:41:31.365Z,9.33
2022-11-06T13:44:07.207Z,10.87
2022-11-06T13:46:44.655Z,11.60
2022-11-06T13:49:34.051Z,10.03
2022-11-06T13:52:03.834Z,11.17
2022-11-06T13:55:01.349Z,13.67
2022-11-06T13:58:01.659Z,10.47
2022-11-06T14:01:12.002Z,11.03
2022-11-06T14:03:47.971Z,10.33
2022-11-06T14:06:20.148Z,10.77
2022-11-06T14:08:54.469Z,10.50
2022-11-06T14:11:34.195Z,9.97
2022-11-06T14:14:07.454Z,10.20
2022-11-06T14:16:37.431Z,9.23
2022-11-06T14:19:06.039Z,9.90
2022-11-06T14:21:49.097Z,10.17
2022-11-06T14:24:27.745Z,10.67
2022-11-06T14:26:54.481Z,13.43
2022-11-06T14:29:27.215Z,11.03
2022-11-06T14:32:02.535Z,11.37
2022-11-06T14:34:31.885Z,10.30
2022-11-06T14:36:58.683Z,12.77
2022-11-06T14:39:56.116Z,11.97
2022-11-06T14:42:52.394Z,11.80
2022-11-06T14:45:21.167Z,11.67
2022-11-06T14:47:52.658Z,11.77
2022-11-06T14:50:19.246Z,10.53
2022-11-06T14:52:52.394Z,10.30
2022-11-06T14:55:45.469Z,10.30
2022-11-06T14:58:17.951Z,12.07
2022-11-06T15:00:57.502Z,9.67
2022-11-06T15:03:42.677Z,10.97
2022-11-06T15:06:18.578Z,9.80
2022-11-06T15:08:50.707Z,10.17
2022-11-06T15:11:33.037Z,11.30
2022-11-06T15:14:02.199Z,11.70
2022-11-06T15:16:50.587Z,9.50
2022-11-06T15:19:21.484Z,11.30
2022-11-06T15:22:14.699Z,10.00
2022-11-06T15:25:16.558Z,10.33
2022-11-06T15:28:11.824Z,9.73
2022-11-06T15:30:45.626Z,10.83
2022-11-06T15:33:18.583Z,11.13
2022-11-06T15:35:47.613Z,8.87
2022-11-06T15:38:19.929Z,10.97
2022-11-06T15:40:48.266Z,11.57
2022-11-06T15:43:37.316Z,11.57
2022-11-06T15:46:19.477Z,14.47
2022-11-06T15:48:46.353Z,10.47
2022-11-06T15:51:28.272Z,11.67
2022-11-06T15:53:55.794Z,11.03
2022-11-06T15:56:31.190Z,13.17
2022-11-06T15:59:09.934Z,12.27
2022-11-06T16:01:37.076Z,13.03
2022-11-06T16:04:19.029Z,11.03
2022-11-06T16:06:47.535Z,10.47
2022-11-06T16:09:25.001Z,10.23
2022-11-06T16:11:52.919Z,11.83
2022-11-06T16:14:20.423Z,8.50
2022-11-06T16:16:50.227Z,10.97
2022-11-06T16:19:32.449Z,9.30
2022-11-06T16:22:20.754Z,11.43
2022-11-06T16:24:53.400Z,10.80
2022-11-06T16:27:24.657Z,10.13
2022-11-06T16:30:00.971Z,13.23
2022-11-06T16:32:31.809Z,12.00
2022-11-06T16:35:00.013Z,11.23
2022-11-06T16:37:29.757Z,9.13
2022-11-06T16:39:59.333Z,9.67
2022-11-06T16:42:35.848Z,12.90
2022-11-06T16:45:08.492Z,11.33
2022-11-06T16:47:35.115Z,11.10
2022-11-06T16:50:06.892Z,11.70
2022-11-06T16:52:40.504Z,10.70
2022-11-06T16:55:25.345Z,11.87
2022-11-06T16:57:59.038Z,12.30
2022-11-06T17:00:31.046Z,13.73
2022-11-06T17:03:05.404Z,13.70
2022-11-06T17:05:36.532Z,13.27
2022-11-06T17:08:18.244Z,14.37
2022-11-06T17:10:46.843Z,12.00
2022-11-06T17:13:28.058Z,15.47
2022-11-06T17:16:01.471Z,13.10
2022-11-06T17:18:31.547Z,14.40
2022-11-06T17:21:00.724Z,11.53
2022-11-06T17:23:29.129Z,11.33
2022-11-06T17:26:07.650Z,14.93
2022-11-06T17:28:34.287Z,15.03
2022-11-06T17:31:00.871Z,14.70
2022-11-06T17:33:27.487Z,15.07
2022-11-06T17:35:54.176Z,14.33
2022-11-06T17:38:20.813Z,14.73
2022-11-06T17:40:47.624Z,14.67
2022-11-06T17:43:14.521Z,14.67
2022-11-06T17:45:44.294Z,13.37
2022-11-06T17:48:10.899Z,15.33
2022-11-06T17:50:56.221Z,13.37
2022-11-06T17:53:22.854Z,15.17
2022-11-06T17:55:49.428Z,15.10
2022-11-06T17:58:16.234Z,14.60
2022-11-06T18:00:43.239Z,15.03
2022-11-06T18:03:17.954Z,16.87
2022-11-06T18:05:45.386Z,13.30
2022-11-06T18:08:13.729Z,13.10
2022-11-06T18:10:41.071Z,12.87
2022-11-06T18:13:07.763Z,15.40
2022-11-06T18:15:35.574Z,15.50
2022-11-06T18:18:02.417Z,15.90
2022-11-06T18:20:29.107Z,13.73
2022-11-06T18:22:55.682Z,15.03
2022-11-06T18:25:22.244Z,16.97
2022-11-06T18:27:48.831Z,15.97
2022-11-06T18:30:15.502Z,15.07
2022-11-06T18:32:42.150Z,15.80
2022-11-06T18:35:09.224Z,18.37
2022-11-06T18:37:35.842Z,17.13
2022-11-06T18:40:02.476Z,15.00
2022-11-06T18:42:29.125Z,16.47
2022-11-06T18:44:55.711Z,17.00
2022-11-06T18:47:22.359Z,18.10
2022-11-06T18:49:49.139Z,21.33
2022-11-06T18:52:32.518Z,20.03
2022-11-06T18:55:02.618Z,18.40
2022-11-06T18:57:29.887Z,18.90
2022-11-06T18:59:56.703Z,21.57
2022-11-06T19:02:23.627Z,20.10
2022-11-06T19:04:50.353Z,18.23
2022-11-06T19:07:17.076Z,18.50
2022-11-06T19:09:43.727Z,19.93
2022-11-06T19:12:10.370Z,21.60
2022-11-06T19:14:37.025Z,22.63
2022-11-06T19:17:03.630Z,18.87
2022-11-06T19:19:30.220Z,18.87
2022-11-06T19:21:56.860Z,20.93
2022-11-06T19:24:23.522Z,16.47
2022-11-06T19:26:50.285Z,17.57
2022-11-06T19:29:17.203Z,16.53
2022-11-06T19:31:43.876Z,17.90
2022-11-06T19:34:13.127Z,18.40
2022-11-06T19:36:39.823Z,18.87
2022-11-06T19:39:07.145Z,15.07
2022-11-06T19:41:34.015Z,17.53
2022-11-06T19:44:00.641Z,18.73
2022-11-06T19:46:33.994Z,18.23
2022-11-06T19:49:05.752Z,20.10
2022-11-06T19:51:33.399Z,17.57
2022-11-06T19:54:01.489Z,18.30
2022-11-06T19:56:28.229Z,18.37
2022-11-06T19:58:54.814Z,17.57
2022-11-06T20:01:21.697Z,16.80
2022-11-06T20:03:48.512Z,17.93
2022-11-06T20:06:15.286Z,16.33
2022-11-06T20:08:42.168Z,15.63
2022-11-06T20:11:14.554Z,14.10
2022-11-06T20:13:42.415Z,15.33
2022-11-06T20:16:20.038Z,14.00
2022-11-06T20:18:55.432Z,16.30
2022-11-06T20:21:23.332Z,14.27
2022-11-06T20:23:49.955Z,16.37
2022-11-06T20:26:16.800Z,16.27
2022-11-06T20:28:43.429Z,19.07
2022-11-06T20:31:11.548Z,15.27
2022-11-06T20:33:38.365Z,17.73
2022-11-06T20:36:10.168Z,19.73
2022-11-06T20:38:36.858Z,16.07
2022-11-06T20:41:03.588Z,16.73
2022-11-06T20:43:30.688Z,17.27
2022-11-06T20:46:01.614Z,18.27
2022-11-06T20:48:28.408Z,17.17
2022-11-06T20:50:59.972Z,17.23
2022-11-06T20:53:30.484Z,17.20
2022-11-06T20:55:58.662Z,16.47
2022-11-06T20:58:26.535Z,16.07
2022-11-06T21:01:04.313Z,15.50
2022-11-06T21:03:31.538Z,16.33
2022-11-06T21:05:58.777Z,16.60
2022-11-06T21:08:26.019Z,16.53
2022-11-06T21:11:00.794Z,14.53
2022-11-06T21:13:32.581Z,16.97
2022-11-06T21:16:01.289Z,19.23
2022-11-06T21:18:28.533Z,18.80
2022-11-06T21:20:55.471Z,15.17
2022-11-06T21:23:22.623Z,15.70
2022-11-06T21:25:49.454Z,16.77
2022-11-06T21:28:16.145Z,16.53
2022-11-06T21:30:47.190Z,15.73
2022-11-06T21:33:15.156Z,14.57
2022-11-06T21:35:42.105Z,18.07
2022-11-06T21:38:08.827Z,18.27
2022-11-06T21:40:38.188Z,16.60
2022-11-06T21:43:04.875Z,14.63
2022-11-06T21:45:31.775Z,16.23
2022-11-06T21:47:58.379Z,17.63
2022-11-06T21:50:29.888Z,16.10
2022-11-06T21:53:15.595Z,14.67
2022-11-06T21:56:00.624Z,17.47
2022-11-06T21:58:27.333Z,15.30
2022-11-06T22:00:54.092Z,15.97
2022-11-06T22:03:20.830Z,14.63
2022-11-06T22:05:47.487Z,15.63
2022-11-06T22:08:14.321Z,14.83
2022-11-06T22:10:41.282Z,13.17
2022-11-06T22:13:07.991Z,14.27
2022-11-06T22:15:34.669Z,13.30
2022-11-06T22:18:02.803Z,14.53
2022-11-06T22:20:29.390Z,14.63
2022-11-06T22:22:55.957Z,13.20
2022-11-06T22:25:22.536Z,15.27
2022-11-06T22:27:49.157Z,12.47
2022-11-06T22:30:15.747Z,13.80
2022-11-06T22:32:42.682Z,13.63
2022-11-06T22:35:09.733Z,13.13
2022-11-06T22:37:36.315Z,14.80
2022-11-06T22:40:03.013Z,12.90
2022-11-06T22:42:29.669Z,14.03
2022-11-06T22:44:56.262Z,13.13
2022-11-06T22:47:22.927Z,12.73
2022-11-06T22:49:51.103Z,14.60
2022-11-06T22:52:17.721Z,17.40
2022-11-06T22:54:44.442Z,12.73
2022-11-06T22:57:11.236Z,14.77
2022-11-06T22:59:37.802Z,14.37
2022-11-06T23:02:04.424Z,13.87
2022-11-06T23:04:31.042Z,11.57
2022-11-06T23:06:57.658Z,13.50
2022-11-06T23:09:24.328Z,13.20
2022-11-06T23:11:50.938Z,15.07
2022-11-06T23:14:17.531Z,13.93
2022-11-06T23:17:00.701Z,12.10
2022-11-06T23:19:29.823Z,11.53
2022-11-06T23:22:16.519Z,15.80
2022-11-06T23:24:44.055Z,12.03
2022-11-06T23:27:12.146Z,13.53
2022-11-06T23:29:39.051Z,12.57
2022-11-06T23:32:06.455Z,14.33
2022-11-06T23:34:33.195Z,13.20
2022-11-06T23:36:59.842Z,12.87
2022-11-06T23:39:26.474Z,11.93
2022-11-06T23:41:53.057Z,15.20
2022-11-06T23:44:38.202Z,11.80
2022-11-06T23:47:04.849Z,12.93
2022-11-06T23:49:31.500Z,11.80
2022-11-06T23:51:58.380Z,10.80
2022-11-06T23:54:25.600Z,11.60
2022-11-06T23:56:52.201Z,10.50
2022-11-06T23:59:18.957Z,11.27
